createdAt,value
2019-03-18T00:02:10.819Z,40.70
2019-03-18T00:05:16.668Z,41.01
2019-03-18T00:08:22.407Z,41.06
2019-03-18T00:11:28.198Z,41.37
2019-03-18T00:14:33.923Z,41.05
2019-03-18T00:17:39.721Z,40.82
2019-03-18T00:20:45.506Z,41.15
2019-03-18T00:23:51.345Z,41.20
2019-03-18T00:26:57.236Z,41.25
2019-03-18T00:30:03.087Z,42.38
2019-03-18T00:33:09.179Z,41.80
2019-03-18T00:36:14.897Z,42.47
2019-03-18T00:39:20.643Z,42.13
2019-03-18T00:42:26.638Z,42.43
2019-03-18T00:45:32.382Z,42.65
2019-03-18T00:48:38.182Z,43.45
2019-03-18T00:51:43.988Z,43.44
2019-03-18T00:54:49.945Z,43.36
2019-03-18T00:57:55.848Z,43.22
2019-03-18T01:01:01.595Z,43.30
2019-03-18T01:04:07.453Z,42.29
2019-03-18T01:07:13.279Z,43.06
2019-03-18T01:10:20.095Z,42.40
2019-03-18T01:13:25.899Z,41.63
2019-03-18T01:16:32.701Z,42.56
2019-03-18T01:19:38.430Z,42.49
2019-03-18T01:22:44.180Z,42.29
2019-03-18T01:25:51.065Z,42.03
2019-03-18T01:28:56.766Z,42.88
2019-03-18T01:32:02.591Z,42.94
2019-03-18T01:35:09.114Z,43.15
2019-03-18T01:38:14.932Z,42.90
2019-03-18T01:41:20.694Z,42.81
2019-03-18T01:44:26.466Z,43.63
2019-03-18T01:47:32.310Z,43.83
2019-03-18T01:50:38.095Z,42.34
2019-03-18T01:53:43.929Z,41.64
2019-03-18T01:56:49.703Z,41.49
2019-03-18T01:59:55.494Z,40.68
2019-03-18T02:03:01.222Z,40.60
2019-03-18T02:06:07.012Z,40.26
2019-03-18T02:09:12.732Z,40.29
2019-03-18T02:12:18.519Z,40.53
2019-03-18T02:15:24.238Z,40.55
2019-03-18T02:18:29.962Z,41.04
2019-03-18T02:21:35.721Z,40.54
2019-03-18T02:24:41.505Z,40.94
2019-03-18T02:27:47.253Z,42.46
2019-03-18T02:30:53.043Z,42.16
2019-03-18T02:33:58.876Z,41.56
2019-03-18T02:37:04.617Z,41.35
2019-03-18T02:40:11.683Z,43.60
2019-03-18T02:43:17.700Z,42.19
2019-03-18T02:46:24.521Z,42.14
2019-03-18T02:49:30.264Z,42.19
2019-03-18T02:52:36.005Z,41.57
2019-03-18T02:55:41.732Z,41.21
2019-03-18T02:58:47.683Z,41.59
2019-03-18T03:01:53.422Z,41.48
2019-03-18T03:04:59.273Z,41.54
2019-03-18T03:08:05.409Z,42.21
2019-03-18T03:11:11.118Z,41.42
2019-03-18T03:14:16.902Z,42.69
2019-03-18T03:17:22.648Z,41.82
2019-03-18T03:20:28.522Z,42.00
2019-03-18T03:23:34.259Z,42.18
2019-03-18T03:26:40.064Z,41.94
2019-03-18T03:29:45.883Z,42.60
2019-03-18T03:32:51.782Z,43.45
2019-03-18T03:35:57.671Z,43.68
2019-03-18T03:39:04.478Z,45.11
2019-03-18T03:42:10.390Z,46.40
2019-03-18T03:45:16.346Z,44.73
2019-03-18T03:48:22.053Z,43.08
2019-03-18T03:51:27.902Z,42.43
2019-03-18T03:54:33.872Z,42.06
2019-03-18T03:57:40.354Z,41.76
2019-03-18T04:00:46.329Z,41.65
2019-03-18T04:03:52.317Z,41.43
2019-03-18T04:06:58.253Z,41.28
2019-03-18T04:10:04.457Z,41.20
2019-03-18T04:13:10.188Z,41.04
2019-03-18T04:16:18.834Z,41.69
2019-03-18T04:19:25.603Z,43.03
2019-03-18T04:22:31.432Z,44.01
2019-03-18T04:25:37.201Z,42.98
2019-03-18T04:28:43.118Z,43.44
2019-03-18T04:31:48.867Z,42.38
2019-03-18T04:34:55.639Z,42.10
2019-03-18T04:38:01.479Z,41.69
2019-03-18T04:41:07.255Z,41.69
2019-03-18T04:44:13.047Z,41.49
2019-03-18T04:47:18.856Z,41.19
2019-03-18T04:50:24.678Z,41.17
2019-03-18T04:53:30.399Z,41.35
2019-03-18T04:56:36.186Z,41.86
2019-03-18T04:59:41.955Z,41.71
2019-03-18T05:02:47.844Z,41.55
2019-03-18T05:05:53.611Z,41.67
2019-03-18T05:08:59.498Z,41.63
2019-03-18T05:12:05.365Z,41.70
2019-03-18T05:15:11.484Z,41.67
2019-03-18T05:18:18.860Z,41.82
2019-03-18T05:21:24.562Z,42.38
2019-03-18T05:24:30.667Z,42.44
2019-03-18T05:27:38.875Z,43.61
2019-03-18T05:30:44.634Z,44.73
2019-03-18T05:33:53.163Z,42.92
2019-03-18T05:37:03.501Z,43.44
2019-03-18T05:40:09.600Z,43.50
2019-03-18T05:43:16.547Z,44.25
2019-03-18T05:46:22.385Z,46.01
2019-03-18T05:49:28.198Z,43.35
2019-03-18T05:52:40.500Z,43.44
2019-03-18T05:55:51.598Z,42.45
2019-03-18T05:59:08.445Z,42.03
2019-03-18T06:05:36.421Z,44.88
2019-03-18T06:08:48.233Z,44.15
2019-03-18T06:11:55.773Z,42.93
2019-03-18T06:15:01.539Z,43.21
2019-03-18T06:18:07.465Z,43.07
2019-03-18T06:21:15.772Z,40.58
2019-03-18T06:24:39.153Z,40.37
2019-03-18T06:27:52.924Z,39.58
2019-03-18T06:31:17.770Z,39.55
2019-03-18T06:34:21.426Z,39.31
2019-03-18T06:37:27.190Z,38.29
2019-03-18T06:40:32.989Z,37.79
2019-03-18T06:43:41.264Z,38.19
2019-03-18T06:46:58.723Z,36.48
2019-03-18T06:50:04.581Z,36.19
2019-03-18T06:53:10.341Z,35.70
2019-03-18T06:56:16.281Z,35.55
2019-03-18T06:59:22.062Z,34.95
2019-03-18T07:02:27.940Z,35.03
2019-03-18T07:05:33.841Z,34.75
2019-03-18T07:08:39.708Z,34.15
2019-03-18T07:11:45.565Z,34.49
2019-03-18T07:14:51.350Z,34.90
2019-03-18T07:17:57.100Z,35.13
2019-03-18T07:21:02.850Z,34.79
2019-03-18T07:24:08.680Z,34.33
2019-03-18T07:27:14.504Z,33.97
2019-03-18T07:30:20.340Z,33.46
2019-03-18T07:33:26.139Z,34.77
2019-03-18T07:36:31.923Z,35.03
2019-03-18T07:39:37.697Z,34.26
2019-03-18T07:42:44.676Z,34.13
2019-03-18T07:45:50.577Z,34.56
2019-03-18T07:48:56.384Z,34.43
2019-03-18T07:52:02.164Z,35.39
2019-03-18T07:55:08.164Z,34.45
2019-03-18T07:58:13.976Z,34.37
2019-03-18T08:01:22.088Z,33.61
2019-03-18T08:04:36.840Z,33.93
2019-03-18T08:07:38.475Z,33.69
2019-03-18T08:10:47.376Z,34.04
2019-03-18T08:13:53.230Z,35.15
2019-03-18T08:16:59.042Z,33.97
2019-03-18T08:20:09.752Z,33.98
2019-03-18T08:23:16.921Z,33.65
2019-03-18T08:26:22.597Z,33.75
2019-03-18T08:29:30.735Z,32.30
2019-03-18T08:32:36.501Z,31.53
2019-03-18T08:35:42.331Z,31.88
2019-03-18T08:38:48.105Z,31.37
2019-03-18T08:41:53.833Z,30.84
2019-03-18T08:44:59.562Z,30.55
2019-03-18T08:48:05.409Z,29.69
2019-03-18T08:51:11.303Z,29.92
2019-03-18T08:54:17.165Z,29.30
2019-03-18T08:57:23.055Z,29.07
2019-03-18T09:00:28.954Z,29.41
2019-03-18T09:03:37.390Z,29.19
2019-03-18T09:06:43.356Z,28.59
2019-03-18T09:09:50.181Z,28.32
2019-03-18T09:12:55.929Z,28.85
2019-03-18T09:16:01.919Z,28.01
2019-03-18T09:19:09.173Z,28.26
2019-03-18T09:22:15.147Z,27.81
2019-03-18T09:25:20.942Z,27.74
2019-03-18T09:28:26.703Z,27.89
2019-03-18T09:31:32.528Z,27.82
2019-03-18T09:34:38.466Z,27.77
2019-03-18T09:37:45.523Z,27.68
2019-03-18T09:40:51.445Z,27.80
2019-03-18T09:43:57.335Z,27.63
2019-03-18T09:47:03.109Z,27.35
2019-03-18T09:50:09.569Z,27.68
2019-03-18T09:53:15.674Z,27.33
2019-03-18T09:56:23.090Z,27.47
2019-03-18T09:59:28.958Z,28.29
2019-03-18T10:02:34.692Z,27.34
2019-03-18T10:05:43.871Z,26.46
2019-03-18T10:08:49.180Z,26.00
2019-03-18T10:11:54.958Z,26.22
2019-03-18T10:15:00.714Z,26.18
2019-03-18T10:18:07.868Z,26.66
2019-03-18T10:21:13.734Z,27.26
2019-03-18T10:24:19.687Z,28.53
2019-03-18T10:27:25.497Z,28.31
2019-03-18T10:30:33.869Z,28.22
2019-03-18T10:33:39.082Z,27.48
2019-03-18T10:36:44.840Z,27.55
2019-03-18T10:39:50.612Z,27.17
2019-03-18T10:42:56.452Z,27.53
2019-03-18T10:46:02.195Z,27.81
2019-03-18T10:49:08.021Z,28.07
2019-03-18T10:52:13.762Z,27.89
2019-03-18T10:55:19.742Z,27.56
2019-03-18T10:58:25.489Z,26.99
2019-03-18T11:01:31.240Z,27.30
2019-03-18T11:04:37.063Z,28.92
2019-03-18T11:07:42.813Z,28.38
2019-03-18T11:10:48.611Z,28.08
2019-03-18T11:13:54.346Z,28.14
2019-03-18T11:17:00.106Z,28.37
2019-03-18T11:20:06.753Z,27.76
2019-03-18T11:23:12.754Z,27.75
2019-03-18T11:26:18.581Z,27.50
2019-03-18T11:29:24.412Z,27.45
2019-03-18T11:32:30.273Z,27.41
2019-03-18T11:35:36.110Z,29.63
2019-03-18T11:38:41.887Z,28.56
2019-03-18T11:41:47.836Z,28.26
2019-03-18T11:44:53.550Z,28.09
2019-03-18T11:47:59.481Z,28.01
2019-03-18T11:51:05.441Z,27.96
2019-03-18T11:54:11.448Z,27.75
2019-03-18T11:57:17.256Z,28.71
2019-03-18T12:00:23.271Z,28.13
2019-03-18T12:03:29.148Z,28.28
2019-03-18T12:06:34.920Z,28.02
2019-03-18T12:09:40.661Z,27.75
2019-03-18T12:12:46.513Z,27.40
2019-03-18T12:15:52.374Z,28.76
2019-03-18T12:18:58.095Z,28.72
2019-03-18T12:22:03.975Z,28.28
2019-03-18T12:25:10.099Z,28.18
2019-03-18T12:28:17.075Z,28.62
2019-03-18T12:31:22.828Z,27.93
2019-03-18T12:34:28.583Z,27.99
2019-03-18T12:37:34.430Z,27.59
2019-03-18T12:40:40.372Z,27.63
2019-03-18T12:43:46.124Z,27.58
2019-03-18T12:47:19.759Z,27.35
2019-03-18T12:50:43.197Z,27.44
2019-03-18T12:53:33.315Z,27.70
2019-03-18T12:56:39.236Z,27.77
2019-03-18T12:59:48.040Z,27.82
2019-03-18T13:02:54.003Z,28.28
2019-03-18T13:05:59.776Z,27.50
2019-03-18T13:09:08.682Z,27.85
2019-03-18T13:12:15.117Z,28.27
2019-03-18T13:15:24.082Z,28.14
2019-03-18T13:18:29.970Z,28.51
2019-03-18T13:21:35.754Z,28.05
2019-03-18T13:24:41.498Z,28.09
2019-03-18T13:27:47.226Z,28.33
2019-03-18T13:30:53.193Z,28.57
2019-03-18T13:34:04.721Z,28.74
2019-03-18T13:37:10.403Z,28.53
2019-03-18T13:40:16.393Z,28.35
2019-03-18T13:43:22.084Z,28.51
2019-03-18T13:46:27.872Z,28.17
2019-03-18T13:49:33.663Z,28.33
2019-03-18T13:52:39.545Z,28.03
2019-03-18T13:55:45.408Z,27.79
2019-03-18T13:58:51.132Z,27.87
2019-03-18T14:01:56.869Z,27.98
2019-03-18T14:05:02.838Z,27.84
2019-03-18T14:08:10.192Z,27.68
2019-03-18T14:11:16.106Z,27.48
2019-03-18T14:14:22.146Z,27.22
2019-03-18T14:17:27.955Z,27.33
2019-03-18T14:20:33.790Z,27.26
2019-03-18T14:23:39.561Z,27.29
2019-03-18T14:26:48.088Z,27.29
2019-03-18T14:29:53.821Z,27.36
2019-03-18T14:33:02.925Z,27.16
2019-03-18T14:36:08.744Z,27.22
2019-03-18T14:39:14.595Z,27.01
2019-03-18T14:42:20.380Z,27.04
2019-03-18T14:45:29.245Z,27.27
2019-03-18T14:48:40.947Z,26.95
2019-03-18T14:51:46.702Z,25.14
2019-03-18T14:54:52.545Z,24.89
2019-03-18T14:57:58.448Z,24.82
2019-03-18T15:01:07.650Z,25.07
2019-03-18T15:04:13.555Z,24.93
2019-03-18T15:07:19.375Z,25.33
2019-03-18T15:10:25.182Z,25.35
2019-03-18T15:13:31.442Z,25.62
2019-03-18T15:16:37.383Z,25.68
2019-03-18T15:19:44.007Z,25.61
2019-03-18T15:23:16.089Z,25.82
2019-03-18T15:26:07.249Z,25.69
2019-03-18T15:29:12.991Z,25.65
2019-03-18T15:32:18.772Z,25.65
2019-03-18T15:35:27.640Z,25.29
2019-03-18T15:38:33.597Z,25.05
2019-03-18T15:41:39.357Z,25.42
2019-03-18T15:44:45.132Z,25.81
2019-03-18T15:47:50.863Z,26.44
2019-03-18T15:50:56.578Z,26.52
2019-03-18T15:54:02.311Z,26.97
2019-03-18T15:57:08.076Z,27.37
2019-03-18T16:00:16.990Z,28.10
2019-03-18T16:03:30.324Z,28.88
2019-03-18T16:06:43.275Z,29.49
2019-03-18T16:09:49.070Z,30.10
2019-03-18T16:12:56.034Z,30.69
2019-03-18T16:16:01.966Z,31.02
2019-03-18T16:19:12.051Z,31.22
2019-03-18T16:22:23.508Z,31.98
2019-03-18T16:25:25.495Z,32.39
2019-03-18T16:28:31.290Z,32.79
2019-03-18T16:31:37.020Z,33.27
2019-03-18T16:34:42.903Z,33.61
2019-03-18T16:37:51.311Z,33.80
2019-03-18T16:40:57.074Z,34.16
2019-03-18T16:44:02.789Z,34.52
2019-03-18T16:47:08.571Z,34.66
2019-03-18T16:50:15.502Z,35.05
2019-03-18T16:53:22.239Z,34.79
2019-03-18T16:56:28.006Z,35.01
2019-03-18T16:59:33.955Z,35.10
2019-03-18T17:02:39.696Z,35.31
2019-03-18T17:05:45.444Z,35.52
2019-03-18T17:08:51.186Z,35.54
2019-03-18T17:11:57.051Z,35.58
2019-03-18T17:15:02.819Z,35.58
2019-03-18T17:18:08.967Z,35.47
2019-03-18T17:21:14.754Z,35.59
2019-03-18T17:24:20.621Z,35.74
2019-03-18T17:27:26.617Z,36.00
2019-03-18T17:30:32.368Z,36.05
2019-03-18T17:33:38.220Z,36.84
2019-03-18T17:36:45.829Z,36.87
2019-03-18T17:39:52.961Z,37.21
2019-03-18T17:42:58.856Z,37.42
2019-03-18T17:46:04.958Z,37.75
2019-03-18T17:49:17.970Z,38.44
2019-03-18T17:52:23.717Z,38.51
2019-03-18T17:55:29.804Z,38.23
2019-03-18T17:58:36.793Z,38.46
2019-03-18T18:01:42.597Z,38.39
2019-03-18T18:04:48.353Z,38.83
2019-03-18T18:07:54.149Z,39.15
2019-03-18T18:11:00.035Z,39.36
2019-03-18T18:14:06.107Z,39.68
2019-03-18T18:17:12.103Z,39.94
2019-03-18T18:20:19.231Z,40.40
2019-03-18T18:23:25.059Z,40.30
2019-03-18T18:26:30.955Z,40.10
2019-03-18T18:29:36.802Z,40.18
2019-03-18T18:32:43.065Z,40.40
2019-03-18T18:35:52.317Z,40.62
2019-03-18T18:38:59.551Z,40.92
2019-03-18T18:42:05.478Z,41.31
2019-03-18T18:45:12.582Z,40.84
2019-03-18T18:48:22.142Z,40.84
2019-03-18T18:51:27.928Z,41.89
2019-03-18T18:54:35.863Z,41.57
2019-03-18T18:57:41.718Z,42.10
2019-03-18T19:00:47.466Z,42.36
2019-03-18T19:03:53.249Z,43.36
2019-03-18T19:06:59.001Z,43.81
2019-03-18T19:10:05.297Z,43.91
2019-03-18T19:13:11.061Z,43.20
2019-03-18T19:16:16.931Z,43.49
2019-03-18T19:19:22.743Z,43.66
2019-03-18T19:22:28.651Z,44.07
2019-03-18T19:25:34.457Z,44.08
2019-03-18T19:28:40.249Z,44.25
2019-03-18T19:32:13.609Z,44.22
2019-03-18T19:35:44.453Z,44.44
2019-03-18T19:38:45.593Z,44.11
2019-03-18T19:41:51.317Z,44.41
2019-03-18T19:49:21.535Z,44.95
2019-03-18T19:52:40.265Z,45.59
2019-03-18T19:55:46.085Z,45.59
2019-03-18T19:58:52.044Z,45.68
2019-03-18T20:01:57.795Z,45.42
2019-03-18T20:05:14.379Z,45.54
2019-03-18T20:08:11.031Z,45.34
2019-03-18T20:11:16.755Z,45.60
2019-03-18T20:14:22.646Z,45.58
2019-03-18T20:17:28.484Z,45.79
2019-03-18T20:20:34.235Z,46.53
2019-03-18T20:23:40.028Z,46.39
2019-03-18T20:26:45.832Z,46.39
2019-03-18T20:29:51.565Z,45.48
2019-03-18T20:32:57.595Z,45.86
2019-03-18T20:36:03.408Z,45.51
2019-03-18T20:39:09.405Z,45.60
2019-03-18T20:42:15.118Z,45.67
2019-03-18T20:45:20.934Z,45.68
2019-03-18T20:48:26.922Z,46.34
2019-03-18T20:51:32.808Z,47.05
2019-03-18T20:54:41.501Z,46.91
2019-03-18T20:57:48.063Z,45.80
2019-03-18T21:00:55.127Z,46.92
2019-03-18T21:04:00.861Z,48.30
2019-03-18T21:07:07.698Z,48.66
2019-03-18T21:10:13.539Z,49.67
2019-03-18T21:13:19.262Z,49.82
2019-03-18T21:16:25.147Z,50.03
2019-03-18T21:19:30.895Z,49.31
2019-03-18T21:22:36.705Z,49.48
2019-03-18T21:25:42.539Z,49.56
2019-03-18T21:28:48.264Z,49.03
2019-03-18T21:31:54.038Z,48.67
2019-03-18T21:34:59.784Z,48.71
2019-03-18T21:38:05.943Z,49.00
2019-03-18T21:41:11.678Z,49.14
2019-03-18T21:44:17.512Z,49.65
2019-03-18T21:47:23.280Z,49.57
2019-03-18T21:50:29.120Z,49.93
2019-03-18T21:53:35.043Z,50.67
2019-03-18T21:56:40.853Z,49.99
2019-03-18T21:59:46.585Z,48.89
2019-03-18T22:02:52.513Z,49.11
2019-03-18T22:06:00.753Z,48.79
2019-03-18T22:09:07.328Z,50.83
2019-03-18T22:12:13.092Z,50.03
2019-03-18T22:15:19.070Z,49.65
2019-03-18T22:18:24.830Z,51.38
2019-03-18T22:21:30.573Z,50.97
2019-03-18T22:24:44.722Z,51.60
2019-03-18T22:27:44.121Z,50.94
2019-03-18T22:30:49.842Z,51.02
2019-03-18T22:33:55.694Z,51.22
2019-03-18T22:37:01.435Z,51.04
2019-03-18T22:40:07.311Z,51.00
2019-03-18T22:43:13.050Z,51.43
2019-03-18T22:46:18.809Z,50.20
2019-03-18T22:49:24.548Z,50.66
2019-03-18T22:52:30.555Z,50.96
2019-03-18T22:55:36.442Z,52.65
2019-03-18T22:58:42.182Z,50.94
2019-03-18T23:01:47.910Z,50.94
2019-03-18T23:04:53.638Z,52.30
2019-03-18T23:08:00.453Z,50.99
2019-03-18T23:11:06.325Z,51.48
2019-03-18T23:14:12.084Z,50.67
2019-03-18T23:17:17.867Z,52.06
2019-03-18T23:20:23.697Z,51.44
2019-03-18T23:23:29.578Z,51.38
2019-03-18T23:26:35.312Z,50.74
2019-03-18T23:29:41.109Z,49.95
2019-03-18T23:32:46.861Z,50.35
2019-03-18T23:35:52.634Z,50.71
2019-03-18T23:38:58.727Z,51.04
2019-03-18T23:42:04.769Z,49.67
2019-03-18T23:45:11.295Z,50.40
2019-03-18T23:48:17.018Z,50.47
2019-03-18T23:51:22.782Z,50.16
2019-03-18T23:54:28.509Z,50.25
2019-03-18T23:57:34.416Z,50.73
